Time;durP1;ratioP1;P1;durP2;ratioP2;P2;SDS_P1;SDS_P2;PMS_P1;PMS_P2;Temp;Humidity;BMP_temperature;BMP_pressure;BME280_temperature;BME280_humidity;BME280_pressure;Samples;Min_cycle;Max_cycle;Signal;HPM_P1;HPM_P2
2023/05/14 00:01:24;;;;;;;59.80;45.30;;;;;;;10.93;57.42;101009.20;109031;1283;22005;-80
2023/05/14 00:04:08;;;;;;;67.10;47.50;;;;;;;10.93;57.64;101008.31;109038;1281;22081;-81
2023/05/14 00:07:29;;;;;;;55.10;45.80;;;;;;;10.93;57.55;101011.10;109244;1274;22458;-81
2023/05/14 00:10:20;;;;;;;59.80;45.10;;;;;;;10.86;57.37;101013.04;109160;1278;21982;-81
2023/05/14 00:13:27;;;;;;;59.20;47.30;;;;;;;10.81;57.47;101014.58;109229;1277;23831;-82
2023/05/14 00:16:25;;;;;;;;;;;;;;;;;;;;;
2023/05/14 00:19:41;;;;;;;60.40;46.70;;;;;;;10.75;57.82;101013.88;109495;1276;22498;-82
2023/05/14 00:23:18;;;;;;;58.00;47.80;;;;;;;10.69;57.98;101015.08;109573;1275;22074;-81
2023/05/14 00:26:07;;;;;;;57.80;45.60;;;;;;;10.70;58.40;101013.50;109297;1278;23695;-83
2023/05/14 00:29:16;;;;;;;65.30;45.50;;;;;;;10.73;58.56;101008.71;109581;1275;21992;-82
2023/05/14 00:32:34;;;;;;;52.50;43.50;;;;;;;10.77;58.50;101004.07;109349;1279;21766;-81
2023/05/14 00:35:37;;;;;;;60.90;46.10;;;;;;;10.74;58.38;101006.25;109012;1283;21840;-82
2023/05/14 00:38:30;;;;;;;;;;;;;;;;;;;;;
2023/05/14 00:41:14;;;;;;;63.20;46.60;;;;;;;10.68;58.28;101002.92;108763;1286;22104;-81
2023/05/14 00:43:57;;;;;;;60.30;47.00;;;;;;;10.63;58.18;100997.85;108613;1286;23009;-81
2023/05/14 00:46:49;;;;;;;64.90;46.90;;;;;;;10.59;58.47;100995.52;108735;1285;23297;-80
2023/05/14 00:49:55;;;;;;;61.10;50.70;;;;;;;10.56;58.65;100994.02;108980;1280;22000;-80
2023/05/14 00:52:37;;;;;;;59.70;46.90;;;;;;;10.57;58.84;100993.31;108766;1280;22037;-80
2023/05/14 00:55:24;;;;;;;61.30;49.60;;;;;;;10.59;58.76;100990.48;109014;1277;22068;-81
2023/05/14 00:58:33;;;;;;;61.10;46.70;;;;;;;10.59;58.75;100993.08;109438;1270;21992;-79
2023/05/14 01:01:27;;;;;;;60.80;48.00;;;;;;;10.58;58.68;100994.85;109944;1269;23732;-80
2023/05/14 01:04:26;;;;;;;58.30;48.00;;;;;;;10.55;58.63;100994.40;109864;1269;23035;-81
2023/05/14 01:07:37;;;;;;;63.20;50.20;;;;;;;10.53;58.70;100992.19;110117;1269;22011;-80
2023/05/14 01:10:40;;;;;;;65.40;51.20;;;;;;;10.52;58.63;100987.35;110168;1264;22865;-80
2023/05/14 01:14:27;;;;;;;64.20;50.00;;;;;;;10.49;58.62;100985.02;110882;1264;21964;-82
2023/05/14 01:17:46;;;;;;;68.10;52.40;;;;;;;10.39;58.79;100979.16;110542;1267;21975;-81
2023/05/14 01:20:53;;;;;;;60.80;50.40;;;;;;;10.35;58.86;100982.44;110460;1268;21979;-82
2023/05/14 01:23:48;;;;;;;65.40;53.00;;;;;;;10.31;58.72;100979.73;110119;1268;24316;-81
2023/05/14 01:26:43;;;;;;;63.30;51.80;;;;;;;10.29;58.84;100985.01;110255;1268;22104;-80
2023/05/14 01:29:35;;;;;;;63.30;50.90;;;;;;;10.27;58.77;100980.69;110156;1267;21976;-81
2023/05/14 01:32:34;;;;;;;63.80;49.30;;;;;;;10.26;58.72;100976.89;110286;1268;22632;-80
2023/05/14 01:35:58;;;;;;;;;;;;;;;;;;;;;
2023/05/14 01:39:05;;;;;;;;;;;;;;;;;;;;;
2023/05/14 01:41:53;;;;;;;60.80;48.90;;;;;;;10.18;58.93;100972.74;110487;1268;23722;-82
2023/05/14 01:45:08;;;;;;;63.40;49.60;;;;;;;10.14;58.96;100970.59;110142;1268;21844;-82
2023/05/14 01:49:24;;;;;;;59.20;51.00;;;;;;;10.09;59.09;100967.95;110088;1268;22313;-83
2023/05/14 01:51:38;;;;;;;63.60;51.60;;;;;;;10.03;59.43;100963.91;110062;1268;21983;-81
2023/05/14 01:55:04;;;;;;;66.00;51.90;;;;;;;10.02;59.87;100964.11;110607;1264;21960;-82
2023/05/14 01:58:08;;;;;;;68.50;52.50;;;;;;;10.02;60.09;100962.23;110852;1263;21968;-81
2023/05/14 02:01:24;;;;;;;63.40;53.10;;;;;;;10.01;60.07;100959.30;110777;1251;22137;-83
2023/05/14 02:04:45;;;;;;;60.90;52.80;;;;;;;10.00;60.26;100961.74;110985;1263;21949;-83
2023/05/14 02:07:38;;;;;;;61.90;52.90;;;;;;;10.01;60.20;100959.62;110703;1264;22015;-80
2023/05/14 02:10:38;;;;;;;74.00;55.50;;;;;;;10.00;60.05;100962.07;110570;1267;22982;-81
2023/05/14 02:13:52;;;;;;;65.20;55.20;;;;;;;9.96;59.80;100962.17;110555;1267;22564;-83
2023/05/14 02:16:41;;;;;;;68.40;54.20;;;;;;;9.91;59.61;100957.27;110514;1267;22005;-81
2023/05/14 02:19:51;;;;;;;66.70;57.10;;;;;;;9.86;59.61;100952.02;110630;1266;21997;-82
2023/05/14 02:22:47;;;;;;;74.00;57.20;;;;;;;9.83;59.53;100951.05;110629;1267;23581;-82
2023/05/14 02:25:26;;;;;;;75.70;56.90;;;;;;;9.81;59.69;100950.06;110260;1254;22420;-81
2023/05/14 02:28:34;;;;;;;;;;;;;;;;;;;;;
2023/05/14 02:31:50;;;;;;;70.00;53.20;;;;;;;9.78;60.08;100946.98;110773;1263;21989;-83
2023/05/14 02:35:14;;;;;;;69.60;55.10;;;;;;;9.75;60.42;100944.79;110943;1264;23100;-81
2023/05/14 02:38:01;;;;;;;57.90;51.30;;;;;;;9.79;60.49;100937.42;110633;1257;21975;-81
2023/05/14 02:40:48;;;;;;;60.60;53.00;;;;;;;9.81;60.62;100933.89;110543;1267;21980;-82
2023/05/14 02:43:27;;;;;;;68.70;55.30;;;;;;;9.83;60.62;100929.84;110640;1267;23042;-80
2023/05/14 02:46:22;;;;;;;68.20;55.00;;;;;;;9.84;60.64;100925.80;110621;1266;21971;-81
2023/05/14 02:49:44;;;;;;;70.70;57.40;;;;;;;9.84;60.56;100924.77;110263;1266;22002;-80
2023/05/14 02:52:26;;;;;;;63.50;54.80;;;;;;;9.83;60.72;100925.30;110749;1267;23042;-81
2023/05/14 02:55:08;;;;;;;67.10;53.70;;;;;;;9.85;60.81;100925.60;110601;1267;21996;-81
2023/05/14 02:57:44;;;;;;;62.40;53.90;;;;;;;9.87;60.97;100927.30;110790;1266;21997;-80
2023/05/14 03:01:01;;;;;;;59.80;50.70;;;;;;;9.87;61.07;100929.55;110833;1264;21957;-80
2023/05/14 03:04:43;;;;;;;67.30;50.00;;;;;;;9.87;61.26;100931.48;110775;1264;21969;-80
2023/05/14 03:07:49;;;;;;;56.90;50.00;;;;;;;9.92;61.34;100931.52;110714;1251;23847;-80
2023/05/14 03:11:05;;;;;;;56.40;49.50;;;;;;;9.97;61.13;100932.42;110786;1265;21981;-82
2023/05/14 03:13:48;;;;;;;54.50;48.70;;;;;;;9.99;60.80;100928.55;110648;1264;21972;-81
2023/05/14 03:16:41;;;;;;;58.90;49.70;;;;;;;9.95;60.53;100927.27;110617;1265;22237;-80
2023/05/14 03:19:35;;;;;;;55.90;50.00;;;;;;;9.93;60.42;100929.41;111064;1253;21968;-82
2023/05/14 03:22:35;;;;;;;56.70;50.20;;;;;;;9.93;60.39;100933.40;110652;1265;21994;-81
2023/05/14 03:25:44;;;;;;;54.90;48.90;;;;;;;9.96;60.43;100933.14;110137;1269;21992;-81
2023/05/14 03:28:59;;;;;;;53.50;47.20;;;;;;;10.03;60.76;100928.43;110341;1269;21985;-83
2023/05/14 03:31:34;;;;;;;55.90;49.90;;;;;;;10.13;60.67;100929.57;109812;1269;23097;-81
2023/05/14 03:34:44;;;;;;;;;;;;;;;;;;;;;
2023/05/14 03:38:03;;;;;;;;;;;;;;;;;;;;;
2023/05/14 03:40:42;;;;;;;;;;;;;;;10.43;60.19;100926.73;109627;1273;23711;-81
2023/05/14 03:43:32;;;;;;;55.30;47.40;;;;;;;10.45;60.33;100922.13;109267;1276;21991;-81
2023/05/14 03:46:10;;;;;;;50.70;44.40;;;;;;;10.53;60.24;100915.98;109175;1276;23056;-81
2023/05/14 03:48:41;;;;;;;53.80;43.10;;;;;;;10.64;60.11;100911.84;109199;1273;21999;-81
2023/05/14 03:51:10;;;;;;;52.40;45.30;;;;;;;10.73;59.97;100911.05;109209;1275;22103;-81
2023/05/14 03:53:44;;;;;;;51.00;44.70;;;;;;;10.84;60.03;100909.34;109285;1276;22052;-80
2023/05/14 03:56:14;;;;;;;50.10;41.90;;;;;;;10.96;59.85;100908.13;109634;1271;21983;-82
2023/05/14 03:58:45;;;;;;;45.00;40.10;;;;;;;11.06;59.78;100907.45;109672;1271;24361;-81
2023/05/14 04:01:50;;;;;;;50.60;45.20;;;;;;;11.20;59.75;100907.55;110420;1265;22798;-82
2023/05/14 04:04:52;;;;;;;41.10;36.50;;;;;;;11.40;59.71;100909.50;110695;1265;23019;-84
2023/05/14 04:07:44;;;;;;;41.90;35.70;;;;;;;11.60;59.17;100911.27;110795;1265;23501;-81
2023/05/14 04:10:50;;;;;;;39.20;35.00;;;;;;;11.86;58.97;100914.11;110781;1257;23009;-81
2023/05/14 04:13:53;;;;;;;38.90;33.00;;;;;;;12.13;58.24;100913.20;110820;1265;23074;-82
2023/05/14 04:17:09;;;;;;;39.10;34.20;;;;;;;12.35;57.43;100915.04;110631;1265;22989;-82
2023/05/14 04:20:14;;;;;;;;;;;;;;;;;;;;;
2023/05/14 04:23:23;;;;;;;36.30;32.50;;;;;;;12.57;56.26;100914.23;110651;1266;22002;-81
2023/05/14 04:26:44;;;;;;;40.20;33.50;;;;;;;12.71;55.56;100911.41;110052;1267;22005;-81
2023/05/14 04:29:40;;;;;;;39.10;34.40;;;;;;;12.80;54.88;100907.45;109365;1276;21820;-83
2023/05/14 04:32:36;;;;;;;41.30;34.60;;;;;;;12.90;54.53;100901.13;109486;1275;21982;-81
2023/05/14 04:35:18;;;;;;;40.70;32.30;;;;;;;13.07;54.72;100903.08;109525;1273;23638;-79
2023/05/14 04:38:06;;;;;;;38.30;31.40;;;;;;;13.30;54.20;100901.12;109493;1272;22034;-81
2023/05/14 04:40:51;;;;;;;31.50;28.10;;;;;;;13.56;53.93;100910.39;109718;1272;21999;-80
2023/05/14 04:43:27;;;;;;;35.30;28.80;;;;;;;13.73;53.51;100908.45;109609;1273;21903;-81
2023/05/14 04:46:42;;;;;;;32.70;28.90;;;;;;;13.91;52.79;100904.88;109598;1267;22069;-82
2023/05/14 04:49:37;;;;;;;35.50;27.60;;;;;;;14.01;51.92;100903.09;110409;1267;21983;-82
2023/05/14 04:52:51;;;;;;;;;;;;;;;;;;;;;
2023/05/14 04:56:11;;;;;;;34.90;28.60;;;;;;;14.12;51.40;100902.27;110938;1264;23072;-82
2023/05/14 04:58:52;;;;;;;31.70;27.10;;;;;;;14.27;51.04;100902.29;110874;1251;22019;-82
2023/05/14 05:01:39;;;;;;;30.30;27.20;;;;;;;14.37;50.62;100909.38;110250;1267;21986;-81
2023/05/14 05:04:10;;;;;;;28.20;25.30;;;;;;;14.40;50.14;100903.61;110211;1267;22000;-80
2023/05/14 05:06:39;;;;;;;29.50;24.10;;;;;;;14.50;50.29;100894.79;109397;1271;21964;-81
2023/05/14 05:09:09;;;;;;;25.90;23.10;;;;;;;14.60;50.20;100891.70;109343;1271;21980;-81
2023/05/14 05:11:38;;;;;;;24.00;21.10;;;;;;;14.70;50.00;100889.50;109593;1271;22130;-81
2023/05/14 05:14:07;;;;;;;23.40;20.20;;;;;;;14.82;49.83;100885.65;109580;1271;22470;-81
2023/05/14 05:16:36;;;;;;;23.90;18.50;;;;;;;15.00;49.71;100887.95;109619;1271;23693;-81
2023/05/14 05:19:06;;;;;;;23.40;18.20;;;;;;;15.13;48.74;100894.15;109682;1268;21976;-80
2023/05/14 05:21:39;;;;;;;22.30;17.30;;;;;;;15.17;48.10;100894.11;110067;1268;22938;-80
2023/05/14 05:24:09;;;;;;;21.40;18.30;;;;;;;15.19;48.00;100893.71;110063;1264;22306;-79
2023/05/14 05:26:38;;;;;;;25.80;20.20;;;;;;;15.26;47.95;100897.57;110759;1264;22838;-80
2023/05/14 05:29:07;;;;;;;21.40;19.00;;;;;;;15.28;47.29;100900.10;110719;1264;23785;-79
2023/05/14 05:31:39;;;;;;;;;;;;;;;15.20;46.96;100896.98;110780;1264;22014;-80
2023/05/14 05:34:25;;;;;;;23.50;17.60;;;;;;;14.98;47.32;100897.13;110956;1263;21964;-80
2023/05/14 05:37:19;;;;;;;27.50;20.80;;;;;;;14.90;47.80;100898.59;110890;1263;22989;-80
2023/05/14 05:40:25;;;;;;;27.00;24.10;;;;;;;14.86;48.32;100895.44;110664;1263;22014;-80
2023/05/14 05:43:12;;;;;;;27.40;23.90;;;;;;;14.87;48.77;100894.14;110298;1260;21766;-81
2023/05/14 05:45:53;;;;;;;29.30;23.10;;;;;;;14.89;48.74;100890.04;110207;1267;23166;-81
2023/05/14 05:48:42;;;;;;;29.20;23.10;;;;;;;14.90;48.55;100897.88;110518;1267;21993;-79
2023/05/14 05:51:32;;;;;;;30.20;22.30;;;;;;;14.84;48.31;100894.81;110421;1267;21974;-80
2023/05/14 05:54:13;;;;;;;24.50;21.60;;;;;;;14.82;48.37;100892.81;110437;1267;22944;-80
2023/05/14 05:57:07;;;;;;;26.90;21.60;;;;;;;14.77;48.40;100892.71;110129;1267;22107;-80
2023/05/14 05:59:48;;;;;;;31.70;22.10;;;;;;;14.66;48.46;100889.17;110249;1267;23665;-81
2023/05/14 06:02:32;;;;;;;24.70;21.90;;;;;;;14.60;48.60;100886.12;110917;1263;21987;-81
2023/05/14 06:05:16;;;;;;;26.70;23.50;;;;;;;14.54;48.76;100886.91;110798;1264;22001;-81
2023/05/14 06:08:04;;;;;;;27.20;23.70;;;;;;;14.47;48.81;100886.31;110256;1267;22003;-81
2023/05/14 06:10:54;;;;;;;25.80;23.20;;;;;;;14.44;49.06;100884.20;110526;1267;23646;-81
2023/05/14 06:13:58;;;;;;;25.00;22.40;;;;;;;14.49;49.62;100881.52;110583;1267;21984;-80
2023/05/14 06:16:51;;;;;;;20.50;17.70;;;;;;;14.79;50.28;100879.46;110438;1267;21989;-80
2023/05/14 06:19:35;;;;;;;19.20;16.70;;;;;;;15.19;49.62;100875.27;110618;1267;21981;-81
2023/05/14 06:22:18;;;;;;;19.00;17.00;;;;;;;15.54;48.87;100874.09;110268;1267;23180;-80
2023/05/14 06:24:48;;;;;;;19.90;16.00;;;;;;;15.86;47.90;100875.48;110345;1267;21959;-80
2023/05/14 06:27:21;;;;;;;18.90;17.00;;;;;;;16.21;47.24;100876.64;110808;1263;21989;-80
2023/05/14 06:29:52;;;;;;;21.90;18.50;;;;;;;16.59;46.59;100874.97;110801;1264;22021;-83
2023/05/14 06:32:22;;;;;;;19.40;16.10;;;;;;;17.00;46.07;100873.77;111120;1264;22050;-81
2023/05/14 06:35:05;;;;;;;20.50;14.50;;;;;;;17.42;45.18;100874.54;111114;1263;21960;-83
2023/05/14 06:37:35;;;;;;;15.70;13.00;;;;;;;17.70;44.15;100879.08;111047;1264;21999;-81
2023/05/14 06:40:06;;;;;;;18.80;11.40;;;;;;;17.89;43.38;100875.35;111041;1264;22994;-83
2023/05/14 06:42:39;;;;;;;13.70;11.90;;;;;;;17.93;42.45;100873.86;111046;1263;22001;-81
2023/05/14 06:45:11;;;;;;;13.50;10.90;;;;;;;17.92;42.61;100872.13;111120;1264;22002;-82
2023/05/14 06:47:41;;;;;;;12.60;11.20;;;;;;;18.12;42.80;100871.27;111116;1260;21960;-82
2023/05/14 06:50:11;;;;;;;15.30;9.20;;;;;;;18.45;42.74;100867.50;110650;1265;21974;-81
2023/05/14 06:52:49;;;;;;;8.90;8.00;;;;;;;18.68;41.40;100864.81;110443;1267;21979;-80
2023/05/14 06:55:20;;;;;;;12.40;10.00;;;;;;;18.77;40.34;100858.95;110466;1267;21946;-81
2023/05/14 06:57:51;;;;;;;12.40;9.10;;;;;;;18.93;40.51;100856.20;110628;1267;21984;-81
2023/05/14 07:00:22;;;;;;;9.20;7.60;;;;;;;19.29;39.98;100855.98;110428;1267;22097;-82
2023/05/14 07:02:53;;;;;;;13.10;8.80;;;;;;;19.67;39.91;100848.13;109967;1270;21976;-82
2023/05/14 07:05:25;;;;;;;9.00;7.80;;;;;;;20.26;39.73;100845.48;110113;1270;21995;-82
2023/05/14 07:07:56;;;;;;;14.20;7.80;;;;;;;20.83;38.57;100843.36;110034;1267;22067;-82
2023/05/14 07:10:26;;;;;;;10.40;8.10;;;;;;;21.26;37.60;100845.84;110654;1267;22115;-80
2023/05/14 07:12:59;;;;;;;10.00;7.00;;;;;;;21.40;36.35;100844.98;110661;1267;22007;-83
2023/05/14 07:15:32;;;;;;;11.60;8.20;;;;;;;21.54;36.35;100842.71;110655;1267;22007;-81
2023/05/14 07:18:01;;;;;;;8.50;6.30;;;;;;;21.74;35.86;100835.40;110878;1267;23478;-83
2023/05/14 07:20:32;;;;;;;9.30;7.40;;;;;;;22.06;35.68;100835.86;110571;1267;21963;-80
2023/05/14 07:23:03;;;;;;;13.20;7.80;;;;;;;22.22;34.65;100830.88;110467;1267;21993;-82
2023/05/14 07:25:37;;;;;;;9.40;7.50;;;;;;;22.29;34.80;100827.74;110688;1267;22021;-81
2023/05/14 07:28:09;;;;;;;7.80;7.00;;;;;;;22.56;34.68;100825.96;110613;1267;21986;-81
2023/05/14 07:30:45;;;;;;;10.10;6.70;;;;;;;22.80;33.58;100823.65;110167;1268;22570;-83
2023/05/14 07:33:16;;;;;;;8.50;6.80;;;;;;;22.87;33.07;100823.05;110612;1264;21974;-81
2023/05/14 07:35:46;;;;;;;7.80;6.90;;;;;;;22.96;33.10;100819.11;111054;1264;21993;-81
2023/05/14 07:38:19;;;;;;;9.10;5.80;;;;;;;23.15;33.05;100814.19;110763;1257;23042;-80
2023/05/14 07:40:48;;;;;;;7.10;6.00;;;;;;;23.34;32.33;100818.50;110533;1267;22219;-81
2023/05/14 07:43:18;;;;;;;9.70;6.50;;;;;;;23.17;31.58;100819.52;110227;1267;22069;-82
2023/05/14 07:45:49;;;;;;;12.40;6.10;;;;;;;22.90;31.68;100816.61;110460;1267;22955;-82
2023/05/14 07:48:19;;;;;;;7.60;5.70;;;;;;;22.73;32.31;100815.33;110326;1267;23002;-82
2023/05/14 07:50:50;;;;;;;12.60;4.80;;;;;;;22.71;32.04;100819.37;110103;1267;21998;-82
2023/05/14 07:53:31;;;;;;;6.30;4.20;;;;;;;22.49;31.48;100820.52;110358;1267;22987;-82
2023/05/14 07:56:01;;;;;;;3.90;3.40;;;;;;;22.01;31.59;100827.23;110385;1263;21997;-82
2023/05/14 07:58:31;;;;;;;4.80;3.80;;;;;;;21.45;31.65;100827.64;110120;1264;24296;-82
2023/05/14 08:01:03;;;;;;;6.80;3.70;;;;;;;20.91;32.09;100821.62;110853;1264;21970;-82
2023/05/14 08:03:33;;;;;;;12.10;4.10;;;;;;;20.66;32.82;100819.89;110782;1264;21978;-82
2023/05/14 08:06:06;;;;;;;5.40;3.90;;;;;;;20.45;32.87;100818.02;111097;1264;21990;-82
2023/05/14 08:08:36;;;;;;;9.00;3.80;;;;;;;20.23;33.17;100814.78;110829;1262;21967;-83
2023/05/14 08:11:06;;;;;;;6.30;3.50;;;;;;;20.08;33.59;100813.00;110663;1264;21988;-84
2023/05/14 08:13:37;;;;;;;5.90;4.50;;;;;;;20.12;34.08;100810.96;110488;1264;22972;-83
2023/05/14 08:16:07;;;;;;;5.70;4.20;;;;;;;20.32;34.41;100810.45;110855;1264;22059;-83
2023/05/14 08:18:37;;;;;;;7.10;4.40;;;;;;;20.60;33.90;100808.05;110790;1264;22086;-82
2023/05/14 08:21:08;;;;;;;6.50;3.60;;;;;;;20.99;33.90;100805.10;110407;1264;422555;-83
2023/05/14 08:23:38;;;;;;;8.60;5.30;;;;;;;21.42;33.33;100802.73;111015;1262;21974;-84
2023/05/14 08:26:12;;;;;;;4.90;4.20;;;;;;;21.90;32.76;100804.52;111002;1264;21995;-84
2023/05/14 08:28:47;;;;;;;7.60;5.20;;;;;;;22.31;31.87;100801.84;111243;1264;21964;-83
2023/05/14 08:32:43;;;;;;;7.30;5.20;;;;;;;22.67;31.72;100791.02;110897;1263;22983;-83
2023/05/14 08:37:03;;;;;;;;;;;;;;;;;;;;;
2023/05/14 08:40:50;;;;;;;9.20;5.00;;;;;;;23.64;30.27;100789.44;109717;1271;21988;-82
2023/05/14 08:44:24;;;;;;;6.80;4.40;;;;;;;23.41;29.93;100780.91;109496;1274;23084;-82
2023/05/14 08:48:09;;;;;;;8.20;3.80;;;;;;;23.48;30.20;100770.95;109311;1280;22988;-82
2023/05/14 08:51:32;;;;;;;7.00;4.30;;;;;;;23.79;29.87;100770.86;108776;1286;22007;-83
2023/05/14 08:55:56;;;;;;;;;;;;;;;;;;;;;
2023/05/14 09:02:18;;;;;;;11.20;3.70;;;;;;;24.49;28.34;100760.56;107795;1299;23737;-83
2023/05/14 09:05:23;;;;;;;;;;;;;;;;;;;;;
2023/05/14 09:08:24;;;;;;;6.00;3.70;;;;;;;24.70;28.42;100761.00;107781;1295;22013;-85
2023/05/14 09:11:57;;;;;;;7.50;4.00;;;;;;;24.99;27.70;100753.33;108099;1295;23735;-85
2023/05/14 09:14:30;;;;;;;7.60;4.50;;;;;;;25.24;27.36;100745.56;108034;1297;22041;-82
2023/05/14 09:17:01;;;;;;;10.70;3.60;;;;;;;25.16;26.68;100753.60;108100;1292;21956;-82
2023/05/14 09:19:51;;;;;;;;;;;;;;;;;;;;;
2023/05/14 09:22:23;;;;;;;8.10;2.90;;;;;;;24.59;27.44;100749.19;108306;1292;23834;-83
2023/05/14 09:25:13;;;;;;;6.80;4.00;;;;;;;24.30;27.30;100740.34;108395;1289;22126;-83
2023/05/14 09:28:26;;;;;;;6.90;3.80;;;;;;;24.01;27.67;100736.14;108699;1286;22082;-83
2023/05/14 09:31:38;;;;;;;5.10;3.90;;;;;;;23.68;27.85;100736.56;108686;1283;22461;-84
2023/05/14 09:34:36;;;;;;;6.30;3.90;;;;;;;23.15;28.22;100739.10;108982;1283;22041;-84
2023/05/14 09:37:25;;;;;;;5.80;3.90;;;;;;;22.41;29.19;100733.31;109446;1277;22033;-84
2023/05/14 09:40:16;;;;;;;9.90;4.10;;;;;;;21.94;29.95;100723.98;109997;1270;21987;-83
2023/05/14 09:43:13;;;;;;;7.60;4.00;;;;;;;21.97;30.75;100720.31;109963;1267;22037;-85
2023/05/14 09:46:37;;;;;;;6.60;4.30;;;;;;;22.04;30.28;100716.27;110166;1267;21965;-84
2023/05/14 09:49:18;;;;;;;7.40;3.70;;;;;;;21.86;30.44;100715.91;110126;1268;21978;-82
2023/05/14 09:52:02;;;;;;;6.00;4.60;;;;;;;21.70;30.63;100714.18;110365;1263;21953;-83
2023/05/14 09:55:19;;;;;;;8.30;4.80;;;;;;;21.50;31.05;100711.68;110077;1266;21988;-83
2023/05/14 09:58:52;;;;;;;7.80;4.80;;;;;;;21.26;31.32;100707.67;110141;1269;22006;-83
2023/05/14 10:02:40;;;;;;;5.70;4.10;;;;;;;20.95;31.84;100701.67;109999;1265;21999;-85
2023/05/14 10:06:13;;;;;;;7.70;5.40;;;;;;;20.80;32.51;100691.70;110465;1265;22351;-85
2023/05/14 10:10:18;;;;;;;5.40;3.80;;;;;;;20.86;32.65;100687.02;110114;1265;21986;-82
2023/05/14 10:13:40;;;;;;;6.50;3.60;;;;;;;20.82;32.10;100688.02;109427;1271;21982;-83
2023/05/14 10:16:42;;;;;;;5.60;3.10;;;;;;;20.81;32.24;100673.90;109324;1274;23471;-82
2023/05/14 10:19:40;;;;;;;6.50;3.40;;;;;;;20.90;32.09;100666.88;109423;1270;21978;-82
2023/05/14 10:22:50;;;;;;;9.00;2.90;;;;;;;21.19;31.69;100662.39;109005;1273;22458;-84
2023/05/14 10:25:29;;;;;;;6.10;3.60;;;;;;;21.56;31.62;100658.95;108999;1276;22089;-82
2023/05/14 10:28:27;;;;;;;4.60;3.40;;;;;;;22.05;31.69;100654.20;109131;1280;23776;-84
2023/05/14 10:31:09;;;;;;;10.10;4.20;;;;;;;22.38;30.18;100655.05;108977;1280;22109;-84
2023/05/14 10:34:02;;;;;;;14.00;3.80;;;;;;;22.07;29.67;100650.30;108983;1282;21991;-86
2023/05/14 10:37:26;;;;;;;5.30;3.10;;;;;;;21.81;30.37;100643.16;109083;1281;22001;-84
2023/05/14 10:40:32;;;;;;;5.80;3.10;;;;;;;21.96;30.66;100642.61;109082;1280;22592;-84
2023/05/14 10:43:52;;;;;;;;;;;;;;;;;;;;;
2023/05/14 10:47:16;;;;;;;6.40;3.50;;;;;;;21.64;30.84;100634.24;110333;1270;23782;-84
2023/05/14 10:50:02;;;;;;;8.90;4.70;;;;;;;21.77;31.12;100630.15;110194;1265;22454;-84
2023/05/14 10:53:14;;;;;;;10.70;3.30;;;;;;;21.78;30.74;100633.86;110644;1265;22090;-84
2023/05/14 10:56:38;;;;;;;;;;;;;;;;;;;;;
2023/05/14 10:59:35;;;;;;;7.20;3.10;;;;;;;21.30;31.11;100638.52;110129;1270;22000;-84
2023/05/14 11:02:48;;;;;;;;;;;;;;;;;;;;;
2023/05/14 11:05:43;;;;;;;5.10;3.30;;;;;;;20.87;32.21;100640.08;110063;1268;22000;-83
2023/05/14 11:08:55;;;;;;;5.10;2.70;;;;;;;20.96;32.10;100640.92;109928;1270;21977;-84
2023/05/14 11:11:47;;;;;;;;;;;;;;;;;;;;;
2023/05/14 11:15:44;;;;;;;;;;;;;;;;;;;;;
2023/05/14 11:19:16;;;;;;;;;;;;;;;;;;;;;
2023/05/14 11:22:15;;;;;;;;;;;;;;;;;;;;;
2023/05/14 11:25:30;;;;;;;14.90;13.40;;;;;;;20.66;32.43;100620.09;110079;1270;22064;-84
2023/05/14 11:28:43;;;;;;;8.10;2.60;;;;;;;20.42;32.94;100621.86;109981;1270;22385;-82
2023/05/14 11:31:30;;;;;;;3.70;2.30;;;;;;;20.34;33.26;100620.35;110140;1265;22999;-83
2023/05/14 11:34:18;;;;;;;4.80;3.80;;;;;;;20.38;33.53;100611.50;110812;1265;21967;-83
2023/05/14 11:37:06;;;;;;;4.70;3.10;;;;;;;20.52;33.45;100603.96;110348;1269;22002;-87
2023/05/14 11:40:28;;;;;;;;;;;;;;;20.68;33.21;100603.67;110336;1269;21962;-85
2023/05/14 11:43:41;;;;;;;3.00;2.20;;;;;;;20.69;33.30;100601.11;110309;1267;23650;-85
2023/05/14 11:47:05;;;;;;;21.20;2.40;;;;;;;20.77;33.32;100591.48;109886;1269;21985;-85
2023/05/14 11:50:40;;;;;;;4.20;2.00;;;;;;;20.75;33.51;100588.61;109637;1274;21990;-83
2023/05/14 11:54:02;;;;;;;2.30;1.90;;;;;;;20.76;33.30;100591.88;109565;1274;21992;-84
2023/05/14 11:57:01;;;;;;;5.80;2.20;;;;;;;20.62;33.22;100582.85;109771;1271;21993;-85
2023/05/14 12:00:21;;;;;;;4.30;2.00;;;;;;;20.58;33.42;100585.26;109626;1270;23750;-83
2023/05/14 12:03:56;;;;;;;2.40;1.50;;;;;;;20.73;33.94;100582.73;108987;1281;22014;-82
2023/05/14 12:06:39;;;;;;;3.70;2.40;;;;;;;20.90;33.60;100580.58;108995;1267;22767;-82
2023/05/14 12:09:53;;;;;;;4.10;1.70;;;;;;;20.83;33.03;100579.48;109232;1276;21990;-82
2023/05/14 12:13:16;;;;;;;7.90;1.90;;;;;;;20.80;33.26;100576.39;109265;1276;22038;-84
2023/05/14 12:17:13;;;;;;;5.30;2.70;;;;;;;20.72;33.18;100567.60;109297;1274;24365;-84
2023/05/14 12:20:17;;;;;;;6.70;1.90;;;;;;;20.71;33.27;100562.89;108893;1285;21988;-84
2023/05/14 12:23:48;;;;;;;5.60;1.80;;;;;;;20.73;33.00;100562.61;108392;1286;544193;-83
2023/05/14 12:26:38;;;;;;;3.20;2.50;;;;;;;20.56;33.62;100545.84;111356;1258;22018;-83
2023/05/14 12:29:20;;;;;;;4.10;1.80;;;;;;;20.63;33.82;100551.11;111275;1258;22595;-85
2023/05/14 12:32:28;;;;;;;;;;;;;;;;;;;;;
2023/05/14 12:35:35;;;;;;;3.60;1.70;;;;;;;20.72;33.58;100538.08;111146;1258;22731;-83
2023/05/14 12:38:17;;;;;;;3.00;1.60;;;;;;;20.74;33.63;100540.56;110625;1260;22130;-84
2023/05/14 12:41:16;;;;;;;2.90;1.90;;;;;;;20.80;33.78;100537.83;111208;1260;23757;-83
2023/05/14 12:43:53;;;;;;;4.30;1.80;;;;;;;20.89;33.58;100537.66;111139;1260;23026;-85
2023/05/14 12:46:33;;;;;;;7.00;2.10;;;;;;;20.96;33.10;100533.39;110773;1259;22025;-86
2023/05/14 12:49:12;;;;;;;5.70;1.90;;;;;;;20.96;33.01;100531.08;110754;1260;22360;-86
2023/05/14 12:51:48;;;;;;;2.50;1.70;;;;;;;20.98;32.87;100534.66;111299;1261;21999;-87
2023/05/14 12:54:42;;;;;;;8.10;2.30;;;;;;;21.07;33.18;100527.60;110790;1261;22436;-85
2023/05/14 12:57:43;;;;;;;4.50;1.50;;;;;;;21.25;33.26;100528.11;111103;1262;23817;-86
2023/05/14 13:00:18;;;;;;;5.40;1.50;;;;;;;21.40;32.87;100519.83;110885;1263;22620;-85
2023/05/14 13:03:05;;;;;;;3.00;1.40;;;;;;;21.42;32.64;100523.59;110961;1258;21958;-86
2023/05/14 13:06:06;;;;;;;6.50;2.20;;;;;;;21.31;32.70;100519.47;111023;1257;21963;-83
2023/05/14 13:09:49;;;;;;;2.70;1.40;;;;;;;21.17;32.89;100520.23;111299;1257;21964;-85
2023/05/14 13:13:00;;;;;;;2.90;1.20;;;;;;;21.00;32.83;100520.64;111162;1257;22019;-85
2023/05/14 13:17:06;;;;;;;6.50;5.10;;;;;;;20.95;33.05;100516.48;111523;1257;21989;-84
2023/05/14 13:20:35;;;;;;;1.90;1.60;;;;;;;20.77;32.77;100510.80;111322;1258;22015;-86
2023/05/14 13:24:14;;;;;;;3.40;1.90;;;;;;;20.69;33.22;100510.95;110686;1265;21986;-85
2023/05/14 13:27:59;;;;;;;1.40;1.20;;;;;;;20.59;33.34;100506.32;109852;1271;23008;-87
2023/05/14 13:31:19;;;;;;;2.30;1.70;;;;;;;20.55;33.42;100494.60;109604;1272;23759;-86
2023/05/14 13:34:56;;;;;;;;;;;;;;;;;;;;;
2023/05/14 13:37:52;;;;;;;2.00;1.50;;;;;;;20.88;33.25;100495.10;109826;1272;22041;-86
2023/05/14 13:41:34;;;;;;;6.60;1.50;;;;;;;20.77;32.60;100500.40;109899;1272;23647;-86
2023/05/14 13:44:55;;;;;;;3.40;1.70;;;;;;;20.70;33.22;100501.09;109426;1280;21799;-85
2023/05/14 13:48:34;;;;;;;4.20;2.10;;;;;;;20.81;33.13;100492.47;108714;1286;22012;-86
2023/05/14 13:51:24;;;;;;;1.60;1.00;;;;;;;20.89;33.31;100488.48;108835;1286;22021;-86
2023/05/14 13:54:26;;;;;;;2.40;1.30;;;;;;;20.96;32.94;100486.48;108841;1286;23079;-87
2023/05/14 13:57:29;;;;;;;2.10;1.50;;;;;;;20.88;32.77;100479.92;108930;1277;22110;-88
2023/05/14 14:00:53;;;;;;;3.10;1.40;;;;;;;20.83;33.09;100477.61;109370;1264;22280;-84
2023/05/14 14:03:45;;;;;;;3.50;1.90;;;;;;;20.82;33.26;100473.45;109740;1273;21876;-85